• Join FlightAware (Why Join?)
  • Login
  • US Flag 
05:13AM EDT


 

Airport Tracker/Info


-or-


 

Live Flight TrackerFlight Track Log ✈ DAL458 ✈ 08-May-2013 ✈ MGGT / GUA - KLAX

Flight Track Log - Related Links

Times and Time Zones

All times are in EDT time to prevent confusion due to time zone crossing. See the DAL458 flight status page for this flight to view local times or setup timezone preferences in your user account.

Time Position Orientation Groundspeed Altitude Reporting Facility
EDT Latitude Longitude Course Direction KTS MPH feet Rate Location/Type
09:21AM 14.6538 -90.6083 312° West  Level FlightAware Approximate
09:22AM 14.7244 -90.6892 312° West  Level FlightAware Approximate
09:23AM 14.7949 -90.7701 312° West  Level FlightAware Approximate
09:24AM 14.8661 -90.8519 312° West  Level FlightAware Approximate
09:25AM 14.9372 -90.9337 312° West  Level FlightAware Approximate
09:26AM 15.0084 -91.0156 312° West  Level FlightAware Approximate
09:27AM 15.0795 -91.0976 312° West  Level FlightAware Approximate
09:28AM 15.1505 -91.1796 312° West  Level FlightAware Approximate
09:29AM 15.2216 -91.2617 312° West  Level FlightAware Approximate
09:30AM 15.2926 -91.3438 312° West  Level FlightAware Approximate
09:31AM 15.3636 -91.4259 312° West  Level FlightAware Approximate
09:32AM 15.4345 -91.5082 312° West  Level FlightAware Approximate
09:33AM 15.5054 -91.5905 312° West  Level FlightAware Approximate
09:34AM 15.5763 -91.6728 312° West  Level FlightAware Approximate
09:35AM 15.6472 -91.7552 312° West  Level FlightAware Approximate
09:36AM 15.7059 -91.8226 316° Northwest  Level FlightAware Approximate
09:37AM 15.7826 -91.8992 316° Northwest  Level FlightAware Approximate
09:38AM 15.8540 -91.9811 312° West  Level FlightAware Approximate
09:39AM 15.9254 -92.0632 312° West  Level FlightAware Approximate
09:40AM 15.9967 -92.1452 312° West  Level FlightAware Approximate
09:41AM 16.0681 -92.2274 312° West  Level FlightAware Approximate
09:42AM 16.1394 -92.3096 312° West  Level FlightAware Approximate
09:43AM 16.2106 -92.3918 312° West  Level FlightAware Approximate
09:44AM 16.2819 -92.4742 312° West  Level FlightAware Approximate
09:45AM 16.3530 -92.5565 312° West  Level FlightAware Approximate
09:46AM 16.4242 -92.6390 312° West  Level FlightAware Approximate
09:47AM 16.4953 -92.7215 312° West  Level FlightAware Approximate
09:48AM 16.5664 -92.8040 312° West  Level FlightAware Approximate
09:49AM 16.6375 -92.8867 312° West  Level FlightAware Approximate
09:50AM 16.7085 -92.9693 312° West  Level FlightAware Approximate
09:51AM 16.7795 -93.0521 312° West  Level FlightAware Approximate
09:52AM 16.8505 -93.1349 312° West  Level FlightAware Approximate
09:53AM 16.9214 -93.2178 312° West  Level FlightAware Approximate
09:54AM 16.9923 -93.3007 312° West  Level FlightAware Approximate
09:55AM 17.0632 -93.3837 312° West  Level FlightAware Approximate
09:56AM 17.1340 -93.4667 312° West  Level FlightAware Approximate
09:57AM 17.2048 -93.5499 312° West  Level FlightAware Approximate
09:58AM 17.2756 -93.6330 312° West  Level FlightAware Approximate
09:59AM 17.3463 -93.7163 312° West  Level FlightAware Approximate
10:00AM 17.4170 -93.7996 312° West  Level FlightAware Approximate
10:01AM 17.4877 -93.8830 312° West  Level FlightAware Approximate
10:02AM 17.5583 -93.9664 312° West  Level FlightAware Approximate
10:03AM 17.6289 -94.0499 312° West  Level FlightAware Approximate
10:04AM 17.6995 -94.1335 312° West  Level FlightAware Approximate
10:05AM 17.7700 -94.2171 312° West  Level FlightAware Approximate
10:06AM 17.8405 -94.3008 312° West  Level FlightAware Approximate
10:07AM 17.9109 -94.3846 311° West  Level FlightAware Approximate
10:08AM 17.9813 -94.4684 311° West  Level FlightAware Approximate
10:09AM 18.0517 -94.5523 311° West  Level FlightAware Approximate
10:10AM 18.1220 -94.6363 311° West  Level FlightAware Approximate
10:11AM 18.1924 -94.7203 311° West  Level FlightAware Approximate
10:12AM 18.2626 -94.8044 311° West  Level FlightAware Approximate
10:13AM 18.3328 -94.8886 311° West  Level FlightAware Approximate
10:14AM 18.4030 -94.9728 311° West  Level FlightAware Approximate
10:15AM 18.4732 -95.0571 311° West  Level FlightAware Approximate
10:16AM 18.5433 -95.1415 311° West  Level FlightAware Approximate
10:17AM 18.6134 -95.2260 311° West  Level FlightAware Approximate
10:18AM 18.6838 -95.3102 311° West  Level FlightAware Approximate
10:19AM 18.7542 -95.3944 311° West  Level FlightAware Approximate
10:20AM 18.8246 -95.4787 311° West  Level FlightAware Approximate
10:21AM 18.8949 -95.5631 311° West  Level FlightAware Approximate
10:22AM 18.9652 -95.6475 311° West  Level FlightAware Approximate
10:23AM 19.0354 -95.7320 311° West  Level FlightAware Approximate
10:24AM 19.1057 -95.8165 311° West  Level FlightAware Approximate
10:25AM 19.1761 -95.9015 311° West  Level FlightAware Approximate
10:26AM 19.2465 -95.9864 311° West  Level FlightAware Approximate
10:27AM 19.3168 -96.0715 311° West  Level FlightAware Approximate
10:28AM 19.3871 -96.1566 311° West  Level FlightAware Approximate
10:29AM 19.4574 -96.2418 311° West  Level FlightAware Approximate
10:30AM 19.5276 -96.3271 311° West  Level FlightAware Approximate
10:31AM 19.5978 -96.4125 311° West  Level FlightAware Approximate
10:32AM 19.6679 -96.4979 311° West  Level FlightAware Approximate
10:33AM 19.7380 -96.5834 311° West  Level FlightAware Approximate
10:34AM 19.8081 -96.6690 311° West  Level FlightAware Approximate
10:35AM 19.8781 -96.7546 311° West  Level FlightAware Approximate
10:36AM 19.9481 -96.8404 311° West  Level FlightAware Approximate
10:37AM 20.0180 -96.9262 311° West  Level FlightAware Approximate
10:38AM 20.0879 -97.0121 311° West  Level FlightAware Approximate
10:39AM 20.1578 -97.0980 311° West  Level FlightAware Approximate
10:40AM 20.2274 -97.1843 310° West  Level FlightAware Approximate
10:41AM 20.2966 -97.2709 310° West  Level FlightAware Approximate
10:42AM 20.3657 -97.3577 310° West  Level FlightAware Approximate
10:43AM 20.4348 -97.4445 310° West  Level FlightAware Approximate
10:44AM 20.5039 -97.5314 310° West  Level FlightAware Approximate
10:45AM 20.5729 -97.6183 310° West  Level FlightAware Approximate
10:46AM 20.6418 -97.7054 310° West  Level FlightAware Approximate
10:47AM 20.7108 -97.7925 310° West  Level FlightAware Approximate
10:48AM 20.7796 -97.8797 310° West  Level FlightAware Approximate
10:49AM 20.8485 -97.9670 310° West  Level FlightAware Approximate
10:50AM 20.9173 -98.0544 310° West  Level FlightAware Approximate
10:51AM 20.9860 -98.1418 310° West  Level FlightAware Approximate
10:52AM 21.0547 -98.2293 310° West  Level FlightAware Approximate
10:53AM 21.1234 -98.3169 310° West  Level FlightAware Approximate
10:54AM 21.1920 -98.4046 310° West  Level FlightAware Approximate
10:55AM 21.2605 -98.4924 310° West  Level FlightAware Approximate
10:56AM 21.3291 -98.5802 310° West  Level FlightAware Approximate
10:57AM 21.3975 -98.6682 310° West  Level FlightAware Approximate
10:58AM 21.4660 -98.7562 310° West  Level FlightAware Approximate
10:59AM 21.5350 -98.8437 311° West  Level FlightAware Approximate
11:00AM 21.6046 -98.9307 311° West  Level FlightAware Approximate
11:01AM 21.6743 -99.0177 311° West  Level FlightAware Approximate
11:02AM 21.7440 -99.1047 311° West  Level FlightAware Approximate
11:03AM 21.8137 -99.1918 311° West  Level FlightAware Approximate
11:04AM 21.8833 -99.2790 311° West  Level FlightAware Approximate
11:05AM 21.9508 -99.3681 309° West  Level FlightAware Approximate
11:06AM 22.0176 -99.4579 309° West  Level FlightAware Approximate
11:07AM 22.0843 -99.5478 309° West  Level FlightAware Approximate
11:08AM 22.1510 -99.6378 309° West  Level FlightAware Approximate
11:09AM 22.2177 -99.7278 309° West  Level FlightAware Approximate
11:10AM 22.2843 -99.8179 311° West  Level FlightAware Approximate
11:11AM 22.3542 -99.9051 311° West  Level FlightAware Approximate
11:12AM 22.4236 -99.9928 308° West  Level FlightAware Approximate
11:13AM 22.4896 -100.0836 308° West  Level FlightAware Approximate
11:14AM 22.5557 -100.1743 309° West  Level FlightAware Approximate
11:15AM 22.6231 -100.2640 309° West  Level FlightAware Approximate
11:16AM 22.6905 -100.3537 309° West  Level FlightAware Approximate
11:17AM 22.7578 -100.4435 309° West  Level FlightAware Approximate
11:18AM 22.8252 -100.5333 309° West  Level FlightAware Approximate
11:19AM 22.8929 -100.6228 309° West  Level FlightAware Approximate
11:20AM 22.9606 -100.7125 309° West  Level FlightAware Approximate
11:21AM 23.0282 -100.8022 309° West  Level FlightAware Approximate
11:22AM 23.0958 -100.8920 309° West  Level FlightAware Approximate
11:23AM 23.1633 -100.9819 309° West  Level FlightAware Approximate
11:24AM 23.2308 -101.0720 309° West  Level FlightAware Approximate
11:25AM 23.2982 -101.1620 309° West  Level FlightAware Approximate
11:26AM 23.3655 -101.2522 309° West  Level FlightAware Approximate
11:27AM 23.4328 -101.3425 309° West  Level FlightAware Approximate
11:28AM 23.5001 -101.4329 309° West  Level FlightAware Approximate
11:29AM 23.5673 -101.5233 309° West  Level FlightAware Approximate
11:30AM 23.6343 -101.6140 309° West  Level FlightAware Approximate
11:31AM 23.7013 -101.7047 309° West  Level FlightAware Approximate
11:32AM 23.7687 -101.7961 309° West  Level FlightAware Approximate
11:33AM 23.8361 -101.8877 309° West  Level FlightAware Approximate
11:34AM 23.9034 -101.9793 309° West  Level FlightAware Approximate
11:35AM 23.9706 -102.0710 309° West  Level FlightAware Approximate
11:36AM 24.0378 -102.1628 309° West  Level FlightAware Approximate
11:37AM 24.1049 -102.2547 309° West  Level FlightAware Approximate
11:38AM 24.1720 -102.3467 309° West  Level FlightAware Approximate
11:39AM 24.2390 -102.4388 309° West  Level FlightAware Approximate
11:40AM 24.3060 -102.5310 309° West  Level FlightAware Approximate
11:41AM 24.3729 -102.6233 309° West  Level FlightAware Approximate
11:42AM 24.4397 -102.7157 308° West  Level FlightAware Approximate
11:43AM 24.5065 -102.8082 308° West  Level FlightAware Approximate
11:44AM 24.5733 -102.9008 308° West  Level FlightAware Approximate
11:45AM 24.6399 -102.9935 308° West  Level FlightAware Approximate
11:46AM 24.7066 -103.0863 308° West  Level FlightAware Approximate
11:47AM 24.7731 -103.1792 308° West  Level FlightAware Approximate
11:48AM 24.8396 -103.2722 308° West  Level FlightAware Approximate
11:49AM 24.9062 -103.3651 308° West  Level FlightAware Approximate
11:50AM 24.9731 -103.4579 308° West  Level FlightAware Approximate
11:51AM 25.0399 -103.5508 308° West  Level FlightAware Approximate
11:52AM 25.1066 -103.6438 308° West  Level FlightAware Approximate
11:53AM 25.1733 -103.7369 308° West  Level FlightAware Approximate
11:54AM 25.2399 -103.8301 308° West  Level FlightAware Approximate
11:55AM 25.3064 -103.9234 308° West  Level FlightAware Approximate
11:56AM 25.3729 -104.0168 308° West  Level FlightAware Approximate
11:57AM 25.4394 -104.1103 308° West  Level FlightAware Approximate
11:58AM 25.5058 -104.2039 308° West  Level FlightAware Approximate
11:59AM 25.5721 -104.2977 308° West  Level FlightAware Approximate
12:00PM 25.6383 -104.3915 308° West  Level FlightAware Approximate
12:01PM 25.7045 -104.4854 308° West  Level FlightAware Approximate
12:02PM 25.7703 -104.5797 307° West  Level FlightAware Approximate
12:03PM 25.8352 -104.6749 307° West  Level FlightAware Approximate
12:04PM 25.9000 -104.7701 307° West  Level FlightAware Approximate
12:05PM 25.9648 -104.8655 307° West  Level FlightAware Approximate
12:06PM 26.0295 -104.9610 307° West  Level FlightAware Approximate
12:07PM 26.0958 -105.0551 308° West  Level FlightAware Approximate
12:08PM 26.1622 -105.1492 308° West  Level FlightAware Approximate
12:09PM 26.2285 -105.2434 308° West  Level FlightAware Approximate
12:10PM 26.2948 -105.3378 308° West  Level FlightAware Approximate
12:11PM 26.3610 -105.4322 308° West  Level FlightAware Approximate
12:12PM 26.4271 -105.5267 308° West  Level FlightAware Approximate
12:13PM 26.4926 -105.6219 307° West  Level FlightAware Approximate
12:14PM 26.5571 -105.7180 307° West  Level FlightAware Approximate
12:15PM 26.6216 -105.8141 307° West  Level FlightAware Approximate
12:16PM 26.6860 -105.9104 307° West  Level FlightAware Approximate
12:17PM 26.7503 -106.0068 307° West  Level FlightAware Approximate
12:18PM 26.8146 -106.1033 307° West  Level FlightAware Approximate
12:19PM 26.8787 -106.1999 307° West  Level FlightAware Approximate
12:20PM 26.9429 -106.2966 307° West  Level FlightAware Approximate
12:21PM 27.0069 -106.3934 307° West  Level FlightAware Approximate
12:22PM 27.0713 -106.4900 307° West  Level FlightAware Approximate
12:23PM 27.1358 -106.5866 307° West  Level FlightAware Approximate
12:24PM 27.2002 -106.6832 307° West  Level FlightAware Approximate
12:25PM 27.2646 -106.7800 307° West  Level FlightAware Approximate
12:26PM 27.3289 -106.8769 307° West  Level FlightAware Approximate
12:27PM 27.3931 -106.9739 307° West  Level FlightAware Approximate
12:28PM 27.4573 -107.0710 307° West  Level FlightAware Approximate
12:29PM 27.5214 -107.1682 307° West  Level FlightAware Approximate
12:30PM 27.5854 -107.2656 307° West  Level FlightAware Approximate
12:31PM 27.6494 -107.3630 307° West  Level FlightAware Approximate
12:32PM 27.7133 -107.4606 307° West  Level FlightAware Approximate
12:33PM 27.7771 -107.5583 306° West  Level FlightAware Approximate
12:34PM 27.8409 -107.6561 306° West  Level FlightAware Approximate
12:35PM 27.9046 -107.7540 306° West  Level FlightAware Approximate
12:36PM 27.9682 -107.8520 306° West  Level FlightAware Approximate
12:37PM 28.0318 -107.9501 306° West  Level FlightAware Approximate
12:38PM 28.0952 -108.0484 306° West  Level FlightAware Approximate
12:39PM 28.1586 -108.1468 306° West  Level FlightAware Approximate
12:40PM 28.2216 -108.2456 306° West  Level FlightAware Approximate
12:41PM 28.2846 -108.3445 306° West  Level FlightAware Approximate
12:42PM 28.3475 -108.4434 306° West  Level FlightAware Approximate
12:43PM 28.4103 -108.5425 306° West  Level FlightAware Approximate
12:44PM 28.4732 -108.6416 306° West  Level FlightAware Approximate
12:45PM 28.5360 -108.7409 306° West  Level FlightAware Approximate
12:46PM 28.5987 -108.8402 306° West  Level FlightAware Approximate
12:47PM 28.6614 -108.9397 306° West  Level FlightAware Approximate
12:48PM 28.7239 -109.0393 306° West  Level FlightAware Approximate
12:49PM 28.7864 -109.1390 306° West  Level FlightAware Approximate
12:50PM 28.8489 -109.2388 306° West  Level FlightAware Approximate
12:51PM 28.9112 -109.3388 305° West  Level FlightAware Approximate
12:52PM 28.9735 -109.4388 305° West  Level FlightAware Approximate
12:53PM 29.0357 -109.5390 305° West  Level FlightAware Approximate
12:54PM 29.0978 -109.6393 305° West  Level FlightAware Approximate
12:55PM 29.1599 -109.7398 305° West  Level FlightAware Approximate
12:56PM 29.2219 -109.8403 305° West  Level FlightAware Approximate
12:57PM 29.2838 -109.9410 305° West  Level FlightAware Approximate
12:58PM 29.3456 -110.0418 305° West  Level FlightAware Approximate
12:59PM 29.4074 -110.1427 305° West  Level FlightAware Approximate
01:00PM 29.4690 -110.2438 305° West  Level FlightAware Approximate
01:01PM 29.5306 -110.3449 305° West  Level FlightAware Approximate
01:02PM 29.5922 -110.4462 305° West  Level FlightAware Approximate
01:03PM 29.6536 -110.5477 305° West  Level FlightAware Approximate
01:04PM 29.7150 -110.6492 305° West  Level FlightAware Approximate
01:05PM 29.7763 -110.7508 305° West  Level FlightAware Approximate
01:06PM 29.8375 -110.8526 305° West  Level FlightAware Approximate
01:07PM 29.8986 -110.9546 305° West  Level FlightAware Approximate
01:08PM 29.9597 -111.0566 305° West  Level FlightAware Approximate
01:09PM 30.0207 -111.1588 305° West  Level FlightAware Approximate
01:10PM 30.0818 -111.2614 305° West  Level FlightAware Approximate
01:11PM 30.1428 -111.3641 304° West  Level FlightAware Approximate
01:12PM 30.2038 -111.4670 304° West  Level FlightAware Approximate
01:13PM 30.2646 -111.5700 304° West  Level FlightAware Approximate
01:14PM 30.3254 -111.6732 304° West  Level FlightAware Approximate
01:15PM 30.3861 -111.7765 304° West  Level FlightAware Approximate
01:16PM 30.4468 -111.8799 304° West  Level FlightAware Approximate
01:17PM 30.5073 -111.9834 304° West  Level FlightAware Approximate
01:18PM 30.5678 -112.0870 304° West  Level FlightAware Approximate
01:19PM 30.6281 -112.1908 304° West  Level FlightAware Approximate
01:20PM 30.6884 -112.2947 304° West  Level FlightAware Approximate
01:21PM 30.7486 -112.3988 304° West  Level FlightAware Approximate
01:22PM 30.8088 -112.5030 304° West  Level FlightAware Approximate
01:23PM 30.8682 -112.6078 303° West  Level FlightAware Approximate
01:24PM 30.9275 -112.7128 303° West  Level FlightAware Approximate
01:25PM 30.9866 -112.8179 303° West  Level FlightAware Approximate
01:26PM 31.0457 -112.9231 303° West  Level FlightAware Approximate
01:27PM 31.1047 -113.0285 303° West  Level FlightAware Approximate
01:28PM 31.1636 -113.1340 303° West  Level FlightAware Approximate
01:29PM 31.2224 -113.2396 303° West  Level FlightAware Approximate
01:30PM 31.2811 -113.3454 303° West  Level FlightAware Approximate
01:31PM 31.3398 -113.4513 303° West  Level FlightAware Approximate
01:32PM 31.4001 -113.5560 305° West  Level FlightAware Approximate
01:33PM 31.4617 -113.6596 305° West  Level FlightAware Approximate
01:34PM 31.5233 -113.7634 305° West  Level FlightAware Approximate
01:35PM 31.5849 -113.8673 305° West  Level FlightAware Approximate
01:36PM 31.6463 -113.9714 305° West  Level FlightAware Approximate
01:37PM 31.7076 -114.0756 305° West  Level FlightAware Approximate
01:38PM 31.7689 -114.1799 305° West  Level FlightAware Approximate
01:39PM 31.8301 -114.2844 305° West  Level FlightAware Approximate
01:40PM 31.8912 -114.3890 305° West  Level FlightAware Approximate
01:40PM 32.2800 -114.9561 304° West 408 470 34,000  Level Los Angeles Center
01:41PM 31.9522 -114.4938 304° West  Level FlightAware Approximate
01:41PM 32.3408 -115.0703 302° West 411 473 34,000  Level Los Angeles Center
01:42PM 32.0131 -114.5986 304° West  Level FlightAware Approximate
01:42PM 32.4022 -115.1833 303° West 411 473 34,000  Level Los Angeles Center
01:43PM 32.0739 -114.7037 304° West  Level FlightAware Approximate
01:43PM 32.4700 -115.3131 302° West 409 471 34,000  Level Los Angeles Center
01:44PM 32.1347 -114.8088 304° West  Level FlightAware Approximate
01:45PM 32.1953 -114.9141 304° West  Level FlightAware Approximate
01:45PM 32.5319 -115.4297 302° West 418 481 34,000  Level Los Angeles Center
01:46PM 32.2559 -115.0196 304° West  Level FlightAware Approximate
01:46PM 32.5942 -115.5461 302° West 419 482 34,000  Level Los Angeles Center
01:47PM 32.6581 -115.6639 303° West 423 487 34,000  Level Los Angeles Center
01:48PM 32.7200 -115.7822 302° West 423 487 34,000  Level Los Angeles Center
01:49PM 32.7953 -115.9244 302° West 425 489 34,000  Level Los Angeles Center
01:50PM 32.8586 -116.0442 302° West 429 494 34,000 -120 Level Los Angeles Center
01:51PM 32.9219 -116.1644 302° West 431 496 33,800 -1,740 Descending Los Angeles Center
01:52PM 32.9939 -116.3033 302° West 434 499 30,400 -3,420 Descending Los Angeles Center
01:53PM 33.0611 -116.4311 302° West 449 517 26,700 -3,000 Descending Los Angeles Center
01:54PM 33.1239 -116.5533 302° West 442 509 24,200 -1,320 Descending Los Angeles Center
01:55PM 33.1547 -116.6886 285° West 435 501 24,000 -900 Descending Los Angeles Center
01:56PM 33.1689 -116.8286 277° West 432 497 22,400 -2,340 Descending Los Angeles Center
01:57PM 33.1861 -116.9650 279° West 420 483 19,200 -3,120 Descending Los Angeles Center
01:58PM 33.2056 -117.1264 278° West 412 474 16,000 -3,000 Descending Los Angeles Center
01:59PM 33.2219 -117.2581 278° West 401 461 13,100 -2,220 Descending Los Angeles Center
02:00PM 33.2333 -117.3500 278° West 444 511 12,100 -660 Descending Southern California TRACON
02:01PM 33.2500 -117.4833 279° West 366 421 12,000  Descending Southern California TRACON
02:02PM 33.2667 -117.6000 280° West 373 429 12,100 -240 Climbing Southern California TRACON
02:03PM 33.3500 -117.6833 320° Northwest 377 434 11,600 -600 Descending Southern California TRACON
02:03PM 33.3628 -117.6975 317° Northwest 375 432 11,300 -1,380 Descending Los Angeles Center
02:04PM 33.4333 -117.7500 328° Northwest 368 423 10,200 -720 Descending Southern California TRACON
02:05PM 33.5167 -117.8167 326° Northwest 313 360 10,100 -720 Descending Southern California TRACON
02:06PM 33.5833 -117.8833 320° Northwest 279 321 8,800 -1,320 Descending Southern California TRACON
02:06PM 33.5964 -117.8939 326° Northwest 297 342 8,300 -1,200 Descending Los Angeles Center
02:07PM 33.6333 -117.9333 318° Northwest 270 311 7,600 -780 Descending Southern California TRACON
02:08PM 33.7000 -117.9833 328° Northwest 265 305 7,100 -360 Descending Southern California TRACON
02:09PM 33.7500 -118.0333 320° Northwest 279 321 7,000 -420 Descending Southern California TRACON
02:10PM 33.8333 -118.0500 351° North 280 322 6,400 -1,200 Descending Southern California TRACON
02:11PM 33.8833 -118.1000 320° Northwest 243 280 4,600 -1,440 Descending Southern California TRACON
02:12PM 33.9167 -118.1500 309° West 215 247 3,400 -960 Descending Southern California TRACON
02:12PM 33.9364 -118.1808 308° West 219 252 3,100 -540 Descending Los Angeles Center